Time;durP1;ratioP1;P1;durP2;ratioP2;P2;SDS_P1;SDS_P2;PMS_P1;PMS_P2;Temp;Humidity;BMP_temperature;BMP_pressure;BME280_temperature;BME280_humidity;BME280_pressure;Samples;Min_cycle;Max_cycle;Signal;HPM_P1;HPM_P2
2021/01/11 14:35:57;;;;;;;2.10;2.00;;;17.50;62.40;;;;;;5063294;27;20473;-43
2021/01/11 14:38:22;;;;;;;3.45;2.22;;;18.00;60.90;;;;;;5062298;28;20508;-46
2021/01/11 14:40:48;;;;;;;2.58;2.38;;;18.10;60.60;;;;;;5061184;27;20040;-46
2021/01/11 14:43:13;;;;;;;2.50;2.30;;;18.10;60.50;;;;;;5063230;28;20037;-46
2021/01/11 14:45:39;;;;;;;2.80;2.63;;;18.10;60.60;;;;;;5061053;27;20078;-46
2021/01/11 14:48:05;;;;;;;2.33;2.20;;;18.10;60.40;;;;;;5063596;28;20110;-47
2021/01/11 14:50:32;;;;;;;2.10;2.00;;;18.20;60.40;;;;;;5064982;27;20040;-46
2021/01/11 14:52:58;;;;;;;2.28;2.17;;;18.20;60.30;;;;;;5062188;28;20053;-46
2021/01/11 14:55:24;;;;;;;2.78;2.30;;;18.20;60.20;;;;;;5063096;28;20094;-42
2021/01/11 14:57:54;;;;;;;2.40;2.22;;;18.20;60.20;;;;;;5058418;27;20041;-45
2021/01/11 15:00:20;;;;;;;2.22;2.13;;;18.20;60.30;;;;;;5059087;28;20041;-36
2021/01/11 15:02:46;;;;;;;2.13;2.03;;;18.30;59.70;;;;;;5063558;27;20044;-44
2021/01/11 15:05:12;;;;;;;3.17;2.10;;;18.30;59.70;;;;;;5064033;28;20049;-46
2021/01/11 15:07:38;;;;;;;1.80;1.70;;;18.30;59.70;;;;;;5062018;28;20048;-44
2021/01/11 15:10:04;;;;;;;2.33;2.13;;;18.30;59.70;;;;;;5062224;28;20049;-42
2021/01/11 15:12:29;;;;;;;2.67;1.90;;;18.30;59.80;;;;;;5059742;28;20516;-43
2021/01/11 15:14:55;;;;;;;3.40;2.28;;;18.30;59.70;;;;;;5061343;27;20051;-42
2021/01/11 15:17:21;;;;;;;2.30;2.10;;;18.30;60.10;;;;;;5064500;28;20504;-42
2021/01/11 15:19:46;;;;;;;2.05;1.90;;;18.40;59.60;;;;;;5060431;27;20171;-42
2021/01/11 15:22:12;;;;;;;2.45;2.25;;;18.40;59.50;;;;;;5060074;28;20043;-44
2021/01/11 15:24:37;;;;;;;2.10;2.00;;;18.40;59.60;;;;;;5058891;27;20067;-37
2021/01/11 15:27:03;;;;;;;2.15;2.05;;;18.30;59.60;;;;;;5059284;28;20516;-42
2021/01/11 15:29:30;;;;;;;1.45;1.35;;;18.40;59.70;;;;;;5063605;27;20048;-43
2021/01/11 15:31:55;;;;;;;2.08;1.98;;;18.40;59.60;;;;;;5061588;28;20404;-43
2021/01/11 15:34:21;;;;;;;1.75;1.65;;;18.40;59.70;;;;;;5061177;27;20051;-44
2021/01/11 15:36:47;;;;;;;2.60;1.85;;;18.30;59.80;;;;;;5060732;27;20044;-45
2021/01/11 15:39:13;;;;;;;2.10;2.00;;;18.30;59.70;;;;;;5060120;27;20414;-42
2021/01/11 15:41:38;;;;;;;2.10;2.00;;;18.40;60.70;;;;;;5063961;28;20082;-43
2021/01/11 15:44:04;;;;;;;2.33;2.22;;;18.30;59.80;;;;;;5060707;28;20043;-44
2021/01/11 15:46:29;;;;;;;1.80;1.70;;;18.40;60.20;;;;;;5049751;28;20234;-43
2021/01/11 15:48:56;;;;;;;2.05;1.80;;;18.40;59.80;;;;;;5047447;28;20501;-43
2021/01/11 15:51:29;;;;;;;1.55;1.45;;;18.40;60.00;;;;;;5047946;28;20048;-43
2021/01/11 15:53:56;;;;;;;1.48;1.38;;;18.40;60.00;;;;;;5047027;28;20043;-43
2021/01/11 15:56:22;;;;;;;1.80;1.70;;;18.30;60.00;;;;;;5047678;28;20447;-45
2021/01/11 15:58:48;;;;;;;1.90;1.80;;;18.30;60.00;;;;;;5046810;28;20041;-40
2021/01/11 16:01:13;;;;;;;2.85;2.00;;;18.30;60.70;;;;;;5044668;28;20045;-44
2021/01/11 16:03:39;;;;;;;2.60;2.40;;;18.30;61.40;;;;;;5042860;28;20729;-43
2021/01/11 16:06:07;;;;;;;2.10;2.00;;;18.40;60.90;;;;;;5047012;28;20049;-44
2021/01/11 16:08:33;;;;;;;1.55;1.45;;;18.40;61.60;;;;;;5050623;28;20033;-43
2021/01/11 16:10:59;;;;;;;1.40;1.20;;;18.40;61.20;;;;;;5046388;28;20049;-45
2021/01/11 16:13:24;;;;;;;2.30;1.67;;;18.40;61.10;;;;;;5046941;28;20500;-46
2021/01/11 16:15:52;;;;;;;1.73;1.60;;;18.40;61.40;;;;;;5046385;28;20048;-28
2021/01/11 16:18:18;;;;;;;2.97;2.70;;;18.30;61.10;;;;;;5046459;28;20124;-44
2021/01/11 16:20:43;;;;;;;4.50;4.20;;;18.30;60.90;;;;;;5048231;28;20045;-44
2021/01/11 16:23:11;;;;;;;8.30;7.50;;;18.30;60.90;;;;;;5046947;28;20079;-45
2021/01/11 16:25:37;;;;;;;10.57;9.48;;;18.30;60.80;;;;;;5043709;28;20045;-42
2021/01/11 16:28:02;;;;;;;10.32;8.35;;;18.30;60.80;;;;;;5046656;28;20099;-41
2021/01/11 16:30:28;;;;;;;8.02;7.30;;;18.30;60.60;;;;;;5045880;28;20099;-35
2021/01/11 16:32:54;;;;;;;7.10;5.88;;;18.30;60.30;;;;;;5045891;28;20052;-42
2021/01/11 16:35:19;;;;;;;7.20;5.90;;;18.30;59.90;;;;;;5048906;28;20079;-41
2021/01/11 16:37:45;;;;;;;10.38;7.30;;;18.30;59.80;;;;;;5044048;28;20049;-41
2021/01/11 16:40:11;;;;;;;9.07;8.00;;;18.40;60.10;;;;;;5047272;28;20550;-42
2021/01/11 16:42:37;;;;;;;8.07;7.30;;;18.40;59.70;;;;;;5045301;28;20083;-44
2021/01/11 16:45:03;;;;;;;7.70;7.05;;;18.50;59.50;;;;;;5043131;28;20400;-44
2021/01/11 16:47:29;;;;;;;7.75;6.20;;;18.60;59.40;;;;;;5049791;28;20037;-43
2021/01/11 16:49:55;;;;;;;7.65;6.95;;;18.50;59.20;;;;;;5047085;28;20049;-44
2021/01/11 16:52:20;;;;;;;7.78;5.88;;;18.60;59.10;;;;;;5045020;28;20120;-44
2021/01/11 16:54:46;;;;;;;7.00;6.30;;;18.60;59.00;;;;;;5043371;28;20049;-44
2021/01/11 16:57:11;;;;;;;8.00;6.25;;;18.60;58.90;;;;;;5043256;28;20038;-44
2021/01/11 16:59:37;;;;;;;6.70;6.10;;;18.50;59.10;;;;;;5046854;28;20049;-45
2021/01/11 17:02:06;;;;;;;7.72;6.93;;;18.50;59.00;;;;;;5039588;28;20102;-44
2021/01/11 17:04:32;;;;;;;7.47;6.88;;;18.50;59.30;;;;;;5044303;28;20044;-44
2021/01/11 17:06:58;;;;;;;9.20;7.95;;;18.50;59.10;;;;;;5043005;28;20043;-44
2021/01/11 17:09:25;;;;;;;8.52;6.90;;;18.50;59.20;;;;;;5045645;28;20052;-44
2021/01/11 17:11:50;;;;;;;7.65;6.80;;;18.40;59.30;;;;;;5044944;28;20132;-44
2021/01/11 17:14:16;;;;;;;7.45;6.55;;;18.40;59.50;;;;;;5047763;28;20067;-43
2021/01/11 17:16:42;;;;;;;6.95;6.25;;;18.30;59.50;;;;;;5044403;28;20049;-37
2021/01/11 17:19:08;;;;;;;7.82;7.03;;;18.40;59.50;;;;;;5046764;28;20049;-42
2021/01/11 17:21:33;;;;;;;6.78;6.25;;;18.30;59.50;;;;;;5046405;28;20110;-39
2021/01/11 17:23:59;;;;;;;14.95;6.57;;;18.30;59.50;;;;;;5044394;28;20124;-40
2021/01/11 17:26:27;;;;;;;7.20;6.50;;;18.30;59.60;;;;;;5048244;28;20064;-43
2021/01/11 17:28:52;;;;;;;6.70;6.20;;;18.40;59.80;;;;;;5043842;28;20518;-42
2021/01/11 17:31:24;;;;;;;6.40;5.80;;;18.40;59.50;;;;;;5042629;28;20049;-41
2021/01/11 17:33:50;;;;;;;7.37;5.33;;;18.40;59.30;;;;;;4692313;28;10000682;-45
2021/01/11 17:36:23;;;;;;;6.47;5.88;;;18.40;59.30;;;;;;5041188;28;21131;-45
2021/01/11 17:38:52;;;;;;;7.33;5.47;;;18.40;59.10;;;;;;5042650;28;20064;-43
2021/01/11 17:41:19;;;;;;;5.20;4.80;;;18.50;59.30;;;;;;5042354;28;20052;-45
2021/01/11 17:43:45;;;;;;;5.95;5.35;;;18.40;58.90;;;;;;5042013;28;20068;-44
2021/01/11 17:46:14;;;;;;;5.18;4.78;;;18.50;59.10;;;;;;5037346;28;20920;-48
2021/01/11 17:48:40;;;;;;;5.30;4.90;;;18.50;59.00;;;;;;5041287;28;20487;-46
2021/01/11 17:51:06;;;;;;;5.72;5.28;;;18.60;58.90;;;;;;5041182;28;20176;-46
2021/01/11 17:53:32;;;;;;;7.00;5.78;;;18.50;58.70;;;;;;5043669;28;20559;-45
2021/01/11 17:55:58;;;;;;;4.97;4.57;;;18.50;58.90;;;;;;5041967;28;20136;-45
2021/01/11 17:58:24;;;;;;;6.05;5.50;;;18.50;58.90;;;;;;5045721;28;20114;-44
2021/01/11 18:00:52;;;;;;;6.15;5.65;;;18.50;58.80;;;;;;5040349;28;20053;-45
2021/01/11 18:03:25;;;;;;;4.60;4.22;;;18.40;59.10;;;;;;5041018;28;20435;-46
2021/01/11 18:05:55;;;;;;;5.13;4.72;;;18.40;59.30;;;;;;5043688;28;20052;-45
2021/01/11 18:08:21;;;;;;;5.70;5.10;;;18.40;59.10;;;;;;5041954;28;20076;-42
2021/01/11 18:10:48;;;;;;;5.10;4.70;;;18.30;59.20;;;;;;5042153;28;20404;-36
2021/01/11 18:13:14;;;;;;;4.82;4.43;;;18.30;59.20;;;;;;5039848;28;20131;-42
2021/01/11 18:15:41;;;;;;;4.88;4.47;;;18.30;59.20;;;;;;5040683;28;20397;-43
2021/01/11 18:18:06;;;;;;;5.20;4.70;;;18.30;59.50;;;;;;5017365;28;20131;-45
2021/01/11 18:20:32;;;;;;;5.00;4.60;;;18.40;59.40;;;;;;5042593;28;20568;-38
2021/01/11 18:22:58;;;;;;;4.80;4.40;;;18.40;59.10;;;;;;5039869;28;20135;-44
2021/01/11 18:25:25;;;;;;;3.92;3.63;;;18.50;59.30;;;;;;5043658;28;20053;-47
2021/01/11 18:27:51;;;;;;;5.30;4.05;;;18.50;59.20;;;;;;5032640;28;20049;-45
2021/01/11 18:30:18;;;;;;;5.38;4.88;;;18.50;59.00;;;;;;5040698;28;20103;-44
2021/01/11 18:32:44;;;;;;;4.53;3.80;;;18.60;59.00;;;;;;5042143;28;20081;-46
2021/01/11 18:35:11;;;;;;;4.38;4.03;;;18.60;58.80;;;;;;5041381;28;20053;-46
2021/01/11 18:37:36;;;;;;;3.95;3.67;;;18.50;58.70;;;;;;5040832;28;20055;-44
2021/01/11 18:40:02;;;;;;;4.40;4.00;;;18.50;58.80;;;;;;5040052;28;20057;-45
2021/01/11 18:42:28;;;;;;;4.43;4.03;;;18.60;58.60;;;;;;5034327;28;20053;-44
2021/01/11 18:44:53;;;;;;;3.72;3.42;;;18.60;58.60;;;;;;5044152;28;20151;-44
2021/01/11 18:47:19;;;;;;;3.90;3.70;;;18.60;58.50;;;;;;4692685;28;10000768;-43
2021/01/11 18:49:45;;;;;;;3.35;3.15;;;18.60;58.30;;;;;;5041251;28;20508;-45
2021/01/11 18:52:10;;;;;;;7.30;3.80;;;18.60;58.40;;;;;;5036505;28;20132;-39
2021/01/11 18:54:36;;;;;;;4.60;4.22;;;18.70;58.30;;;;;;5041291;28;20037;-30
2021/01/11 18:57:08;;;;;;;4.80;4.13;;;18.70;58.20;;;;;;5041589;28;20400;-43
2021/01/11 18:59:34;;;;;;;4.97;3.90;;;18.80;58.10;;;;;;5043533;28;20601;-41
2021/01/11 19:02:00;;;;;;;4.72;4.32;;;18.80;58.40;;;;;;5039116;28;20047;-42
2021/01/11 19:04:26;;;;;;;4.40;4.05;;;18.90;58.10;;;;;;5041169;28;20037;-44
2021/01/11 19:06:51;;;;;;;5.18;4.68;;;18.90;57.90;;;;;;5041605;28;20036;-39
2021/01/11 19:09:17;;;;;;;5.82;4.57;;;18.70;58.20;;;;;;5042503;28;20029;-43
2021/01/11 19:11:46;;;;;;;4.50;4.20;;;18.80;58.10;;;;;;5045487;28;20036;-34
2021/01/11 19:14:12;;;;;;;4.68;4.38;;;18.80;58.10;;;;;;5043783;28;20576;-44
2021/01/11 19:16:40;;;;;;;6.07;3.80;;;18.70;58.10;;;;;;5044174;28;20191;-45
2021/01/11 19:19:05;;;;;;;5.35;4.40;;;18.70;58.70;;;;;;5045042;28;20032;-42
2021/01/11 19:21:31;;;;;;;5.53;5.13;;;18.60;58.00;;;;;;5046006;28;20028;-43
2021/01/11 19:23:57;;;;;;;6.00;4.88;;;18.50;58.40;;;;;;5049359;28;20096;-42
2021/01/11 19:26:26;;;;;;;6.60;5.10;;;18.60;58.50;;;;;;5051698;28;20028;-43
2021/01/11 19:28:52;;;;;;;6.55;5.30;;;18.60;58.50;;;;;;5050753;28;20025;-43
2021/01/11 19:31:19;;;;;;;6.85;5.55;;;18.60;59.00;;;;;;5049156;28;20098;-42
2021/01/11 19:33:45;;;;;;;6.10;5.50;;;18.50;58.50;;;;;;5048198;28;20052;-42
2021/01/11 19:36:11;;;;;;;6.63;5.90;;;18.60;59.10;;;;;;5048397;28;20398;-42
2021/01/11 19:38:36;;;;;;;7.22;6.53;;;18.60;58.60;;;;;;5051622;28;20148;-43
2021/01/11 19:41:02;;;;;;;6.85;6.15;;;18.50;58.70;;;;;;5045739;28;20032;-39
2021/01/11 19:43:28;;;;;;;6.95;6.15;;;18.50;59.30;;;;;;5043884;28;20147;-44
2021/01/11 19:45:53;;;;;;;10.35;6.28;;;18.50;59.60;;;;;;5044187;28;20036;-43
2021/01/11 19:48:19;;;;;;;6.70;6.03;;;18.50;59.60;;;;;;5045340;28;20041;-44
2021/01/11 19:50:45;;;;;;;6.50;5.78;;;18.70;59.70;;;;;;5046256;28;20104;-32
2021/01/11 19:53:11;;;;;;;7.45;5.88;;;18.70;59.70;;;;;;5046580;28;20055;-35
2021/01/11 19:55:37;;;;;;;7.93;6.18;;;18.80;59.70;;;;;;5045476;28;20044;-40
2021/01/11 19:58:03;;;;;;;6.18;5.65;;;18.80;60.10;;;;;;5045853;28;20036;-42
2021/01/11 20:00:29;;;;;;;6.80;5.30;;;18.90;59.60;;;;;;5044969;28;20029;-42
2021/01/11 20:02:56;;;;;;;7.30;6.28;;;18.90;59.70;;;;;;5047574;28;20461;-30
2021/01/11 20:05:23;;;;;;;7.43;5.80;;;18.90;59.60;;;;;;5049098;28;20036;-42
2021/01/11 20:07:49;;;;;;;9.48;6.43;;;18.90;60.00;;;;;;5041957;28;20696;-42
2021/01/11 20:10:14;;;;;;;7.82;6.10;;;19.00;60.20;;;;;;5044581;28;20052;-35
2021/01/11 20:12:40;;;;;;;6.28;5.65;;;18.90;60.20;;;;;;5043672;28;20732;-43
2021/01/11 20:15:08;;;;;;;9.75;7.20;;;18.90;60.10;;;;;;5044037;28;20048;-43
2021/01/11 20:17:35;;;;;;;6.55;5.80;;;19.00;60.20;;;;;;5049157;28;20037;-44
2021/01/11 20:20:06;;;;;;;9.00;5.72;;;18.90;60.50;;;;;;5045154;28;20112;-41
2021/01/11 20:22:36;;;;;;;6.30;5.60;;;18.90;60.70;;;;;;5044546;28;20094;-41
2021/01/11 20:25:02;;;;;;;8.10;5.78;;;18.90;60.30;;;;;;5043515;28;20033;-42
2021/01/11 20:27:27;;;;;;;6.07;5.13;;;19.00;60.40;;;;;;5044788;28;20036;-44
2021/01/11 20:29:53;;;;;;;6.00;5.22;;;19.00;60.10;;;;;;5045220;28;20020;-43
2021/01/11 20:32:19;;;;;;;5.47;4.93;;;19.00;60.10;;;;;;5043563;28;20500;-33
2021/01/11 20:34:44;;;;;;;6.72;5.20;;;19.00;60.10;;;;;;5029644;28;20041;-44
2021/01/11 20:37:10;;;;;;;6.70;4.78;;;19.00;60.50;;;;;;5047553;28;20086;-43
2021/01/11 20:39:36;;;;;;;5.43;4.68;;;18.90;60.80;;;;;;5047046;28;20053;-42
2021/01/11 20:42:01;;;;;;;9.90;4.53;;;18.90;60.90;;;;;;5046245;28;24456;-41
2021/01/11 20:44:27;;;;;;;8.60;4.50;;;18.90;60.70;;;;;;5046633;28;20036;-43
2021/01/11 20:46:54;;;;;;;5.30;4.72;;;18.80;60.70;;;;;;5046122;28;20136;-43
2021/01/11 20:49:20;;;;;;;4.75;4.35;;;18.80;61.30;;;;;;5043875;28;20056;-37
2021/01/11 20:51:45;;;;;;;4.10;3.67;;;18.80;60.80;;;;;;5015585;28;20041;-41
2021/01/11 20:54:11;;;;;;;5.38;4.50;;;18.80;60.70;;;;;;5047370;28;20060;-42
2021/01/11 20:56:46;;;;;;;4.72;3.53;;;18.80;60.90;;;;;;5047329;28;20111;-44
2021/01/11 20:59:12;;;;;;;5.90;4.88;;;18.80;60.70;;;;;;5047531;28;20626;-44
2021/01/11 21:01:40;;;;;;;6.05;5.40;;;18.80;60.50;;;;;;5045979;28;20033;-45
2021/01/11 21:04:06;;;;;;;5.85;5.35;;;18.80;60.30;;;;;;5045228;28;20439;-44
2021/01/11 21:06:32;;;;;;;6.75;6.13;;;18.80;60.20;;;;;;5046657;28;20025;-44
2021/01/11 21:08:58;;;;;;;6.90;6.20;;;18.80;60.10;;;;;;5045999;28;20074;-41
2021/01/11 21:11:27;;;;;;;8.30;7.00;;;18.70;60.90;;;;;;5048270;28;20025;-44
2021/01/11 21:13:55;;;;;;;9.38;7.20;;;18.80;60.30;;;;;;5045913;28;20508;-44
2021/01/11 21:16:22;;;;;;;7.72;6.60;;;18.70;60.30;;;;;;5045534;28;20088;-42
2021/01/11 21:18:47;;;;;;;8.90;7.60;;;18.70;60.30;;;;;;5045439;28;20063;-41
2021/01/11 21:21:18;;;;;;;7.95;6.60;;;18.70;60.30;;;;;;5047128;28;20496;-40
2021/01/11 21:23:43;;;;;;;9.02;5.60;;;18.70;60.40;;;;;;5047208;28;20029;-40
2021/01/11 21:26:09;;;;;;;6.10;5.50;;;18.60;60.40;;;;;;5047838;28;20043;-43
2021/01/11 21:28:34;;;;;;;8.88;6.55;;;18.60;60.40;;;;;;5046734;28;20104;-42
2021/01/11 21:31:00;;;;;;;6.97;6.38;;;18.60;60.50;;;;;;5046906;28;20493;-43
2021/01/11 21:33:25;;;;;;;8.90;6.78;;;18.70;60.60;;;;;;5045842;28;20374;-42
2021/01/11 21:35:51;;;;;;;6.47;5.85;;;18.60;60.50;;;;;;5045559;28;20084;-43
2021/01/11 21:38:17;;;;;;;6.10;5.60;;;18.60;60.70;;;;;;5047957;28;20025;-43
2021/01/11 21:40:42;;;;;;;7.30;6.55;;;18.70;60.60;;;;;;5045600;28;20035;-43
2021/01/11 21:43:08;;;;;;;5.70;5.40;;;18.70;60.60;;;;;;5045292;28;20095;-41
2021/01/11 21:45:37;;;;;;;7.13;6.30;;;18.70;60.40;;;;;;5046728;28;20037;-41
2021/01/11 21:48:03;;;;;;;6.07;5.57;;;18.70;60.80;;;;;;5030172;28;20051;-43
2021/01/11 21:50:28;;;;;;;5.55;4.97;;;18.60;60.70;;;;;;5049384;28;20396;-46
2021/01/11 21:52:54;;;;;;;6.13;5.63;;;18.60;60.70;;;;;;5043626;28;20031;-41
2021/01/11 21:55:20;;;;;;;6.65;6.15;;;18.60;60.80;;;;;;5047269;28;20033;-42
2021/01/11 21:57:45;;;;;;;6.50;6.00;;;18.60;60.60;;;;;;5044862;28;20028;-44
2021/01/11 22:00:11;;;;;;;6.22;5.47;;;18.60;60.60;;;;;;5047418;28;20072;-44
2021/01/11 22:02:37;;;;;;;5.78;5.28;;;18.60;60.60;;;;;;5048021;28;20029;-46
2021/01/11 22:05:03;;;;;;;6.32;5.50;;;18.60;60.70;;;;;;5045276;28;20044;-45
2021/01/11 22:07:30;;;;;;;5.43;4.38;;;18.60;60.50;;;;;;5046362;28;20021;-44
2021/01/11 22:09:56;;;;;;;5.65;5.07;;;18.60;60.60;;;;;;5044749;28;20028;-44
2021/01/11 22:12:21;;;;;;;6.03;5.63;;;18.60;61.20;;;;;;5045291;28;20031;-44
2021/01/11 22:14:47;;;;;;;5.68;5.20;;;18.60;60.60;;;;;;5043987;28;20045;-44
2021/01/11 22:17:12;;;;;;;5.20;4.70;;;18.60;60.40;;;;;;5048479;28;20052;-44
2021/01/11 22:19:38;;;;;;;5.03;4.55;;;18.60;60.50;;;;;;5044042;28;20031;-43
2021/01/11 22:22:04;;;;;;;4.60;4.30;;;18.60;60.30;;;;;;5043793;28;20840;-45
2021/01/11 22:24:29;;;;;;;5.72;4.00;;;18.60;60.20;;;;;;5045060;28;20029;-45
2021/01/11 22:26:55;;;;;;;3.95;3.75;;;18.60;60.40;;;;;;5047574;28;20596;-45
2021/01/11 22:29:20;;;;;;;3.75;3.45;;;18.60;60.20;;;;;;5046920;28;20021;-44
2021/01/11 22:31:46;;;;;;;4.90;4.13;;;18.60;60.20;;;;;;5045261;28;20037;-44
2021/01/11 22:34:11;;;;;;;7.68;3.90;;;18.60;60.30;;;;;;5044347;28;20086;-44
2021/01/11 22:36:37;;;;;;;4.40;4.10;;;18.60;60.10;;;;;;5045378;28;21819;-45
2021/01/11 22:39:03;;;;;;;4.22;3.83;;;18.60;60.30;;;;;;5044888;28;20163;-44
2021/01/11 22:41:29;;;;;;;3.90;3.70;;;18.60;60.30;;;;;;5049228;28;20032;-45
2021/01/11 22:43:54;;;;;;;4.07;3.85;;;18.60;60.20;;;;;;5043274;28;20029;-41
2021/01/11 22:46:20;;;;;;;3.50;3.30;;;18.60;60.30;;;;;;5046005;28;20025;-44
2021/01/11 22:48:45;;;;;;;3.63;3.42;;;18.60;60.10;;;;;;5044733;28;20045;-43
2021/01/11 22:51:11;;;;;;;3.63;3.33;;;18.60;60.30;;;;;;5044889;28;20037;-44
2021/01/11 22:53:36;;;;;;;3.75;3.47;;;18.50;60.20;;;;;;5046540;28;20396;-44
2021/01/11 22:56:10;;;;;;;3.40;3.20;;;18.50;60.20;;;;;;5042682;28;20047;-38
2021/01/11 22:58:37;;;;;;;3.50;3.30;;;18.50;60.20;;;;;;5047787;28;20104;-46
2021/01/11 23:01:02;;;;;;;3.58;3.38;;;18.50;60.20;;;;;;5048385;28;20036;-43
